PWSweather.com
Personal Weather Stations
Station Observations
KV9EWX
Winnebago, Il, Winnebago, IL 61088

Winnebago, IlWinnebago, IL 61088

Lat: 42.261175, Lon: -89.236369

Elevation: 892

Station Type: Lacrosse ws-2811

Latest ConditionsUpdated 7:18:41 AM CDT Thursday, Jun 29, 2017
Currently Today's Max Today's Min Today's Average
Temperature 61.8°F16.6°C 64.2°F17.9°C 60.4°F15.8°C 62.7°F17.1°C
Dew Point -26.7°F-32.6°C -25.1°F-31.7°C -27.5°F-33.1°C -26.0°F-32.2°C
Winds 5.1 mph WSW8.2 kmh WSW 9.4 mph ESE15.1 kmh ESE - 3.0 mph 4.8 kmh
Wind Gusts 9.8 mph15.8 kmh 20.8 mph33.5 kmh - -
Humidity 1% 1% 1% 1%
Pressure 29.39 in995.3 mb 29.40 in995.6 mb 29.33 in993.2 mb -
Hour Temp Dew Point Humidity Winds Wind Gusts Pressure Precip Precip Rate Daily Precip Total
07:18 AM 61.8°F16.6°C -26.7°F-32.6°C 1% 5.1 mph WSW8.2 kmh WSW 9.8 mph15.8 kmh 29.39 in995.3 mb 0.00 in0.0 mm 0.00 in0.0 mm 0.01 in0.3 mm
07:13 AM 61.5°F16.4°C -26.8°F-32.7°C 1% 3.6 mph WSW5.8 kmh WSW 11.0 mph17.7 kmh 29.39 in995.3 mb 0.00 in0.0 mm 0.00 in0.0 mm 0.01 in0.3 mm
07:08 AM 61.5°F16.4°C -26.8°F-32.7°C 1% 4.2 mph SW6.8 kmh SW 11.0 mph17.7 kmh 29.39 in995.3 mb 0.00 in0.0 mm 0.00 in0.0 mm 0.01 in0.3 mm
07:03 AM 61.3°F16.3°C -27.0°F-32.8°C 1% 4.8 mph SW7.7 kmh SW 13.7 mph22.0 kmh 29.40 in995.6 mb 0.00 in0.0 mm 0.00 in0.0 mm 0.01 in0.3 mm
06:58 AM 61.3°F16.3°C -27.0°F-32.8°C 1% 4.0 mph WSW6.4 kmh WSW 13.7 mph22.0 kmh 29.40 in995.6 mb 0.00 in0.0 mm 0.00 in0.0 mm 0.01 in0.3 mm
06:53 AM 61.3°F16.3°C -27.0°F-32.8°C 1% 4.1 mph SSW6.6 kmh SSW 12.6 mph20.3 kmh 29.39 in995.3 mb 0.00 in0.0 mm 0.00 in0.0 mm 0.01 in0.3 mm
06:48 AM 61.3°F16.3°C -27.0°F-32.8°C 1% 3.9 mph S6.3 kmh S 9.4 mph15.1 kmh 29.39 in995.3 mb 0.00 in0.0 mm 0.00 in0.0 mm 0.01 in0.3 mm
06:43 AM 61.3°F16.3°C -27.0°F-32.8°C 1% 3.9 mph SSW6.3 kmh SSW 9.4 mph15.1 kmh 29.38 in994.9 mb 0.00 in0.0 mm 0.00 in0.0 mm 0.01 in0.3 mm
06:38 AM 61.1°F16.2°C -27.1°F-32.8°C 1% 6.2 mph SW10.0 kmh SW 9.4 mph15.1 kmh 29.38 in994.9 mb 0.00 in0.0 mm 0.00 in0.0 mm 0.01 in0.3 mm
06:33 AM 61.1°F16.2°C -27.1°F-32.8°C 1% 3.2 mph SW5.1 kmh SW 9.8 mph15.8 kmh 29.38 in994.9 mb 0.00 in0.0 mm 0.00 in0.0 mm 0.01 in0.3 mm
06:28 AM 61.1°F16.2°C -27.1°F-32.8°C 1% 4.4 mph S7.1 kmh S 9.8 mph15.8 kmh 29.38 in994.9 mb 0.00 in0.0 mm 0.00 in0.0 mm 0.01 in0.3 mm
06:23 AM 60.9°F16.1°C -27.2°F-32.9°C 1% 3.9 mph WSW6.3 kmh WSW 8.6 mph13.8 kmh 29.38 in994.9 mb 0.00 in0.0 mm 0.00 in0.0 mm 0.01 in0.3 mm
06:18 AM 60.7°F15.9°C -27.3°F-32.9°C 1% 4.7 mph NW7.6 kmh NW 8.6 mph13.8 kmh 29.38 in994.9 mb 0.00 in0.0 mm 0.00 in0.0 mm 0.01 in0.3 mm
06:13 AM 60.4°F15.8°C -27.5°F-33.1°C 1% 3.3 mph SW5.3 kmh SW 8.6 mph13.8 kmh 29.38 in994.9 mb 0.00 in0.0 mm 0.00 in0.0 mm 0.01 in0.3 mm
06:08 AM 60.4°F15.8°C -27.5°F-33.1°C 1% 4.2 mph SW6.8 kmh SW 8.6 mph13.8 kmh 29.38 in994.9 mb 0.00 in0.0 mm 0.00 in0.0 mm 0.01 in0.3 mm
06:03 AM 60.7°F15.9°C -27.3°F-32.9°C 1% 2.5 mph WSW4.0 kmh WSW 6.0 mph9.7 kmh 29.38 in994.9 mb 0.00 in0.0 mm 0.00 in0.0 mm 0.01 in0.3 mm
05:58 AM 60.7°F15.9°C -27.3°F-32.9°C 1% 2.8 mph SW4.5 kmh SW 6.0 mph9.7 kmh 29.38 in994.9 mb 0.00 in0.0 mm 0.00 in0.0 mm 0.01 in0.3 mm
05:53 AM 60.9°F16.1°C -27.2°F-32.9°C 1% 2.5 mph SSE4.0 kmh SSE 6.0 mph9.7 kmh 29.38 in994.9 mb 0.00 in0.0 mm 0.00 in0.0 mm 0.01 in0.3 mm
05:48 AM 60.9°F16.1°C -27.2°F-32.9°C 1% 3.1 mph SW5.0 kmh SW 6.0 mph9.7 kmh 29.38 in994.9 mb 0.00 in0.0 mm 0.00 in0.0 mm 0.01 in0.3 mm
05:43 AM 61.3°F16.3°C -27.0°F-32.8°C 1% 2.5 mph SW4.0 kmh SW 4.7 mph7.6 kmh 29.38 in994.9 mb 0.00 in0.0 mm 0.00 in0.0 mm 0.01 in0.3 mm
05:38 AM 61.1°F16.2°C -27.1°F-32.8°C 1% 3.6 mph SW5.8 kmh SW 4.7 mph7.6 kmh 29.38 in994.9 mb 0.00 in0.0 mm 0.00 in0.0 mm 0.01 in0.3 mm
05:33 AM 61.5°F16.4°C -26.8°F-32.7°C 1% 2.1 mph SSW3.4 kmh SSW 6.0 mph9.7 kmh 29.38 in994.9 mb 0.00 in0.0 mm 0.00 in0.0 mm 0.01 in0.3 mm
05:28 AM 61.8°F16.6°C -26.7°F-32.6°C 1% 3.0 mph SW4.8 kmh SW 7.9 mph12.7 kmh 29.38 in994.9 mb 0.00 in0.0 mm 0.00 in0.0 mm 0.01 in0.3 mm
05:23 AM 62.0°F16.7°C -26.5°F-32.5°C 1% 2.2 mph W3.5 kmh W 7.9 mph12.7 kmh 29.37 in994.6 mb 0.00 in0.0 mm 0.00 in0.0 mm 0.01 in0.3 mm
05:18 AM 62.4°F16.9°C -26.3°F-32.4°C 1% 2.2 mph WSW3.5 kmh WSW 8.2 mph13.2 kmh 29.38 in994.9 mb 0.00 in0.0 mm 0.00 in0.0 mm 0.01 in0.3 mm
05:13 AM 62.9°F17.2°C -26.0°F-32.2°C 1% 2.4 mph WSW3.9 kmh WSW 8.2 mph13.2 kmh 29.38 in994.9 mb 0.00 in0.0 mm 0.00 in0.0 mm 0.01 in0.3 mm
05:08 AM 63.2°F17.3°C -25.7°F-32.1°C 1% 4.2 mph SW6.8 kmh SW 9.4 mph15.1 kmh 29.38 in994.9 mb 0.00 in0.0 mm 0.00 in0.0 mm 0.01 in0.3 mm
05:03 AM 63.5°F17.5°C -25.5°F-31.9°C 1% 3.9 mph WSW6.3 kmh WSW 9.4 mph15.1 kmh 29.38 in994.9 mb 0.00 in0.0 mm 0.00 in0.0 mm 0.01 in0.3 mm
04:58 AM 63.5°F17.5°C -25.5°F-31.9°C 1% 3.9 mph SW6.3 kmh SW 7.0 mph11.3 kmh 29.37 in994.6 mb 0.00 in0.0 mm 0.00 in0.0 mm 0.01 in0.3 mm
04:53 AM 63.5°F17.5°C -25.5°F-31.9°C 1% 3.6 mph WSW5.8 kmh WSW 7.0 mph11.3 kmh 29.37 in994.6 mb 0.00 in0.0 mm 0.00 in0.0 mm 0.01 in0.3 mm
04:48 AM 63.5°F17.5°C -25.5°F-31.9°C 1% 2.2 mph SW3.5 kmh SW 6.0 mph9.7 kmh 29.37 in994.6 mb 0.00 in0.0 mm 0.00 in0.0 mm 0.01 in0.3 mm
04:43 AM 63.5°F17.5°C -25.5°F-31.9°C 1% 1.5 mph SSE2.4 kmh SSE 3.9 mph6.3 kmh 29.37 in994.6 mb 0.00 in0.0 mm 0.00 in0.0 mm 0.01 in0.3 mm
04:38 AM 63.5°F17.5°C -25.5°F-31.9°C 1% 0.8 mph WNW1.3 kmh WNW 3.5 mph5.6 kmh 29.37 in994.6 mb 0.00 in0.0 mm 0.00 in0.0 mm 0.01 in0.3 mm
04:33 AM 63.7°F17.6°C -25.4°F-31.9°C 1% 0.9 mph WSW1.4 kmh WSW 4.4 mph7.1 kmh 29.36 in994.2 mb 0.00 in0.0 mm 0.00 in0.0 mm 0.01 in0.3 mm
04:28 AM 63.7°F17.6°C -25.4°F-31.9°C 1% 1.5 mph WSW2.4 kmh WSW 4.4 mph7.1 kmh 29.37 in994.6 mb 0.00 in0.0 mm 0.00 in0.0 mm 0.01 in0.3 mm
04:23 AM 63.7°F17.6°C -25.4°F-31.9°C 1% 1.9 mph WSW3.1 kmh WSW 4.4 mph7.1 kmh 29.36 in994.2 mb 0.00 in0.0 mm 0.00 in0.0 mm 0.01 in0.3 mm
04:18 AM 63.9°F17.7°C -25.3°F-31.8°C 1% 1.5 mph SW2.4 kmh SW 4.4 mph7.1 kmh 29.36 in994.2 mb 0.00 in0.0 mm 0.00 in0.0 mm 0.01 in0.3 mm
04:13 AM 63.9°F17.7°C -25.3°F-31.8°C 1% 0.3 mph WNW0.5 kmh WNW 3.9 mph6.3 kmh 29.36 in994.2 mb 0.00 in0.0 mm 0.00 in0.0 mm 0.01 in0.3 mm
04:08 AM 64.1°F17.8°C -25.2°F-31.8°C 1% 2.4 mph NNW3.9 kmh NNW 3.9 mph6.3 kmh 29.36 in994.2 mb 0.00 in0.0 mm 0.00 in0.0 mm 0.01 in0.3 mm
04:03 AM 64.1°F17.8°C -25.2°F-31.8°C 1% 1.2 mph WSW1.9 kmh WSW 3.9 mph6.3 kmh 29.36 in994.2 mb 0.00 in0.0 mm 0.00 in0.0 mm 0.01 in0.3 mm
03:58 AM 64.1°F17.8°C -25.2°F-31.8°C 1% 1.2 mph WSW1.9 kmh WSW 3.1 mph5.0 kmh 29.36 in994.2 mb 0.00 in0.0 mm 0.00 in0.0 mm 0.01 in0.3 mm
03:53 AM 64.1°F17.8°C -25.2°F-31.8°C 1% 1.6 mph WSW2.6 kmh WSW 4.4 mph7.1 kmh 29.36 in994.2 mb 0.00 in0.0 mm 0.00 in0.0 mm 0.01 in0.3 mm
03:48 AM 64.1°F17.8°C -25.2°F-31.8°C 1% 1.9 mph W3.1 kmh W 4.4 mph7.1 kmh 29.36 in994.2 mb 0.00 in0.0 mm 0.00 in0.0 mm 0.01 in0.3 mm
03:43 AM 64.1°F17.8°C -25.2°F-31.8°C 1% 1.5 mph WSW2.4 kmh WSW 3.5 mph5.6 kmh 29.35 in993.9 mb 0.00 in0.0 mm 0.00 in0.0 mm 0.01 in0.3 mm
03:38 AM 64.1°F17.8°C -25.2°F-31.8°C 1% 1.5 mph WSW2.4 kmh WSW 6.3 mph10.1 kmh 29.35 in993.9 mb 0.00 in0.0 mm 0.00 in0.0 mm 0.01 in0.3 mm
03:33 AM 64.2°F17.9°C -25.1°F-31.7°C 1% 1.9 mph SSW3.1 kmh SSW 6.3 mph10.1 kmh 29.35 in993.9 mb 0.00 in0.0 mm 0.00 in0.0 mm 0.01 in0.3 mm
03:28 AM 64.2°F17.9°C -25.1°F-31.7°C 1% 3.8 mph SSE6.1 kmh SSE 6.3 mph10.1 kmh 29.34 in993.6 mb 0.00 in0.0 mm 0.00 in0.0 mm 0.01 in0.3 mm
03:23 AM 64.2°F17.9°C -25.1°F-31.7°C 1% 3.4 mph SSE5.5 kmh SSE 8.2 mph13.2 kmh 29.34 in993.6 mb 0.00 in0.0 mm 0.00 in0.0 mm 0.01 in0.3 mm
03:18 AM 64.1°F17.8°C -25.2°F-31.8°C 1% 3.9 mph S6.3 kmh S 8.6 mph13.8 kmh 29.33 in993.2 mb 0.00 in0.0 mm 0.00 in0.0 mm 0.01 in0.3 mm
03:13 AM 64.1°F17.8°C -25.2°F-31.8°C 1% 4.2 mph S6.8 kmh S 8.6 mph13.8 kmh 29.33 in993.2 mb 0.00 in0.0 mm 0.00 in0.0 mm 0.01 in0.3 mm
03:08 AM 63.9°F17.7°C -25.3°F-31.8°C 1% 5.5 mph SSE8.9 kmh SSE 8.2 mph13.2 kmh 29.33 in993.2 mb 0.00 in0.0 mm 0.00 in0.0 mm 0.01 in0.3 mm
03:03 AM 63.7°F17.6°C -25.4°F-31.9°C 1% 4.4 mph SSE7.1 kmh SSE 8.6 mph13.8 kmh 29.33 in993.2 mb 0.00 in0.0 mm 0.00 in0.0 mm 0.01 in0.3 mm
02:58 AM 63.7°F17.6°C -25.4°F-31.9°C 1% 5.9 mph SSE9.5 kmh SSE 9.4 mph15.1 kmh 29.33 in993.2 mb 0.00 in0.0 mm 0.00 in0.0 mm 0.01 in0.3 mm
02:53 AM 63.5°F17.5°C -25.5°F-31.9°C 1% 6.3 mph SSE10.1 kmh SSE 9.4 mph15.1 kmh 29.33 in993.2 mb 0.00 in0.0 mm 0.00 in0.0 mm 0.01 in0.3 mm
02:48 AM 63.5°F17.5°C -25.5°F-31.9°C 1% 4.9 mph SSE7.9 kmh SSE 8.6 mph13.8 kmh 29.33 in993.2 mb 0.00 in0.0 mm 0.00 in0.0 mm 0.01 in0.3 mm
02:43 AM 63.5°F17.5°C -25.5°F-31.9°C 1% 3.4 mph S5.5 kmh S 6.0 mph9.7 kmh 29.33 in993.2 mb 0.00 in0.0 mm 0.00 in0.0 mm 0.01 in0.3 mm
02:38 AM 63.2°F17.3°C -25.7°F-32.1°C 1% 4.5 mph S7.2 kmh S 6.0 mph9.7 kmh 29.33 in993.2 mb 0.00 in0.0 mm 0.00 in0.0 mm 0.01 in0.3 mm
02:33 AM 63.2°F17.3°C -25.7°F-32.1°C 1% 3.1 mph S5.0 kmh S 4.7 mph7.6 kmh 29.33 in993.2 mb 0.00 in0.0 mm 0.00 in0.0 mm 0.01 in0.3 mm
02:28 AM 63.2°F17.3°C -25.7°F-32.1°C 1% 2.8 mph SSE4.5 kmh SSE 3.9 mph6.3 kmh 29.34 in993.6 mb 0.00 in0.0 mm 0.00 in0.0 mm 0.01 in0.3 mm
02:23 AM 63.2°F17.3°C -25.7°F-32.1°C 1% 1.5 mph S2.4 kmh S 5.1 mph8.2 kmh 29.34 in993.6 mb 0.00 in0.0 mm 0.00 in0.0 mm 0.01 in0.3 mm
02:18 AM 63.2°F17.3°C -25.7°F-32.1°C 1% 2.3 mph SE3.7 kmh SE 5.1 mph8.2 kmh 29.34 in993.6 mb 0.00 in0.0 mm 0.00 in0.0 mm 0.01 in0.3 mm
02:13 AM 63.2°F17.3°C -25.7°F-32.1°C 1% 1.9 mph SSE3.1 kmh SSE 4.4 mph7.1 kmh 29.35 in993.9 mb 0.00 in0.0 mm 0.00 in0.0 mm 0.01 in0.3 mm
02:08 AM 63.2°F17.3°C -25.7°F-32.1°C 1% 1.4 mph ESE2.3 kmh ESE 4.4 mph7.1 kmh 29.35 in993.9 mb 0.00 in0.0 mm 0.00 in0.0 mm 0.01 in0.3 mm
02:03 AM 63.2°F17.3°C -25.7°F-32.1°C 1% 0.5 mph SSW0.8 kmh SSW 4.7 mph7.6 kmh 29.36 in994.2 mb 0.00 in0.0 mm 0.00 in0.0 mm 0.01 in0.3 mm
01:58 AM 63.3°F17.4°C -25.7°F-32.1°C 1% 0.6 mph S1.0 kmh S 6.7 mph10.8 kmh 29.36 in994.2 mb 0.00 in0.0 mm 0.00 in0.0 mm 0.01 in0.3 mm
01:53 AM 63.3°F17.4°C -25.7°F-32.1°C 1% 2.8 mph S4.5 kmh S 6.7 mph10.8 kmh 29.37 in994.6 mb 0.00 in0.0 mm 0.00 in0.0 mm 0.01 in0.3 mm
01:48 AM 63.2°F17.3°C -25.7°F-32.1°C 1% 3.8 mph ENE6.1 kmh ENE 6.7 mph10.8 kmh 29.37 in994.6 mb 0.00 in0.0 mm 0.00 in0.0 mm 0.01 in0.3 mm
01:43 AM 63.2°F17.3°C -25.7°F-32.1°C 1% 2.2 mph E3.5 kmh E 7.0 mph11.3 kmh 29.38 in994.9 mb 0.00 in0.0 mm 0.00 in0.0 mm 0.01 in0.3 mm
01:38 AM 63.3°F17.4°C -25.7°F-32.1°C 1% 3.2 mph N5.1 kmh N 7.0 mph11.3 kmh 29.38 in994.9 mb 0.00 in0.0 mm 0.00 in0.0 mm 0.01 in0.3 mm
01:33 AM 63.3°F17.4°C -25.7°F-32.1°C 1% 4.0 mph NNW6.4 kmh NNW 7.0 mph11.3 kmh 29.38 in994.9 mb 0.00 in0.0 mm 0.00 in0.0 mm 0.01 in0.3 mm
01:28 AM 63.3°F17.4°C -25.7°F-32.1°C 1% 1.2 mph SE1.9 kmh SE 4.4 mph7.1 kmh 29.38 in994.9 mb 0.00 in0.0 mm 0.00 in0.0 mm 0.01 in0.3 mm
01:23 AM 63.2°F17.3°C -25.7°F-32.1°C 1% 0.3 mph SSE0.5 kmh SSE 4.4 mph7.1 kmh 29.38 in994.9 mb 0.00 in0.0 mm 0.00 in0.0 mm 0.01 in0.3 mm
01:18 AM 63.2°F17.3°C -25.7°F-32.1°C 1% 2.4 mph SE3.9 kmh SE 4.7 mph7.6 kmh 29.38 in994.9 mb 0.00 in0.0 mm 0.00 in0.0 mm 0.01 in0.3 mm
01:13 AM 63.2°F17.3°C -25.7°F-32.1°C 1% 2.2 mph SE3.5 kmh SE 6.3 mph10.1 kmh 29.38 in994.9 mb 0.00 in0.0 mm 0.00 in0.0 mm 0.01 in0.3 mm
01:08 AM 63.2°F17.3°C -25.7°F-32.1°C 1% 2.3 mph WSW3.7 kmh WSW 9.4 mph15.1 kmh 29.38 in994.9 mb 0.00 in0.0 mm 0.00 in0.0 mm 0.01 in0.3 mm
01:03 AM 63.0°F17.2°C -25.8°F-32.1°C 1% 5.9 mph SE9.5 kmh SE 9.4 mph15.1 kmh 29.38 in994.9 mb 0.00 in0.0 mm 0.00 in0.0 mm 0.01 in0.3 mm
12:58 AM 62.7°F17.1°C -26.1°F-32.3°C 1% 4.7 mph ESE7.6 kmh ESE 7.0 mph11.3 kmh 29.38 in994.9 mb 0.00 in0.0 mm 0.00 in0.0 mm 0.01 in0.3 mm
12:53 AM 62.7°F17.1°C -26.1°F-32.3°C 1% Calm Calm 4.4 mph7.1 kmh 29.38 in994.9 mb 0.00 in0.0 mm 0.00 in0.0 mm 0.01 in0.3 mm
12:48 AM 62.7°F17.1°C -26.1°F-32.3°C 1% 1.2 mph WNW1.9 kmh WNW 6.0 mph9.7 kmh 29.38 in994.9 mb 0.01 in0.3 mm 0.00 in0.0 mm 0.01 in0.3 mm
12:43 AM 62.7°F17.1°C -26.1°F-32.3°C 1% 2.5 mph WSW4.0 kmh WSW 6.7 mph10.8 kmh 29.38 in994.9 mb 0.01 in0.3 mm 0.00 in0.0 mm 0.01 in0.3 mm
12:38 AM 62.7°F17.1°C -26.1°F-32.3°C 1% 3.6 mph SSE5.8 kmh SSE 6.7 mph10.8 kmh 29.37 in994.6 mb 0.01 in0.3 mm 0.00 in0.0 mm 0.01 in0.3 mm
12:33 AM 62.5°F16.9°C -26.2°F-32.3°C 1% 4.0 mph SE6.4 kmh SE 8.2 mph13.2 kmh 29.37 in994.6 mb 0.01 in0.3 mm 0.00 in0.0 mm 0.01 in0.3 mm
12:28 AM 62.5°F16.9°C -26.2°F-32.3°C 1% 4.8 mph ESE7.7 kmh ESE 8.2 mph13.2 kmh 29.36 in994.2 mb 0.01 in0.3 mm 0.00 in0.0 mm 0.01 in0.3 mm
12:23 AM 62.4°F16.9°C -26.3°F-32.4°C 1% 2.0 mph ENE3.2 kmh ENE 4.4 mph7.1 kmh 29.37 in994.6 mb 0.01 in0.3 mm 0.00 in0.0 mm 0.01 in0.3 mm
12:18 AM 62.5°F16.9°C -26.2°F-32.3°C 1% 1.0 mph SE1.6 kmh SE 11.0 mph17.7 kmh 29.36 in994.2 mb 0.01 in0.3 mm 0.00 in0.0 mm 0.01 in0.3 mm
12:13 AM 62.4°F16.9°C -26.3°F-32.4°C 1% 3.9 mph ESE6.3 kmh ESE 11.0 mph17.7 kmh 29.37 in994.6 mb 0.01 in0.3 mm 0.00 in0.0 mm 0.01 in0.3 mm
12:08 AM 62.2°F16.8°C -26.4°F-32.4°C 1% 3.1 mph ESE5.0 kmh ESE 17.1 mph27.5 kmh 29.36 in994.2 mb 0.01 in0.3 mm 0.00 in0.0 mm 0.01 in0.3 mm
12:03 AM 62.0°F16.7°C -26.5°F-32.5°C 1% 9.4 mph ESE15.1 kmh ESE 20.8 mph33.5 kmh 29.34 in993.6 mb 0.01 in0.3 mm 0.20 in5.1 mm 0.01 in0.3 mm